Time;durP1;ratioP1;P1;durP2;ratioP2;P2;SDS_P1;SDS_P2;PMS_P1;PMS_P2;Temp;Humidity;BMP_temperature;BMP_pressure;BME280_temperature;BME280_humidity;BME280_pressure;Samples;Min_cycle;Max_cycle;Signal;HPM_P1;HPM_P2
2022/03/18 00:00:21;;;;;;;22.03;17.97;;;11.70;66.80;12.00;97762.00;;;;5095800;28;20195;-84
2022/03/18 00:02:49;;;;;;;23.07;18.47;;;11.70;66.80;12.00;97766.00;;;;5095790;28;20195;-85
2022/03/18 00:05:17;;;;;;;24.53;18.43;;;11.80;66.90;12.00;97774.00;;;;5096159;28;20294;-85
2022/03/18 00:07:45;;;;;;;21.70;18.27;;;11.70;66.80;12.00;97771.00;;;;5096292;28;20287;-84
2022/03/18 00:10:18;;;;;;;22.90;18.53;;;11.70;66.90;12.00;97767.00;;;;5097069;28;20572;-85
2022/03/18 00:12:47;;;;;;;23.90;18.33;;;11.90;67.00;12.00;97762.00;;;;5095590;28;20195;-85
2022/03/18 00:15:15;;;;;;;22.00;17.93;;;11.70;66.90;12.00;97770.00;;;;5095548;28;20277;-85
2022/03/18 00:17:43;;;;;;;22.60;17.80;;;11.70;66.90;12.00;97770.00;;;;5095591;28;20200;-84
2022/03/18 00:20:13;;;;;;;23.50;18.40;;;11.60;66.90;12.00;97774.00;;;;5095227;28;20199;-85
2022/03/18 00:22:43;;;;;;;24.23;18.33;;;11.60;67.80;11.90;97773.00;;;;5095705;28;20203;-85
2022/03/18 00:25:11;;;;;;;22.77;17.97;;;11.70;67.20;12.00;97767.00;;;;5095344;28;20223;-85
2022/03/18 00:27:42;;;;;;;24.17;18.33;;;11.60;67.10;11.90;97762.00;;;;5095181;28;20295;-84
2022/03/18 00:30:11;;;;;;;24.13;17.97;;;11.60;67.10;11.90;97766.00;;;;5096118;28;20214;-85
2022/03/18 00:32:40;;;;;;;23.33;18.17;;;11.60;67.20;11.90;97774.00;;;;5096148;28;20239;-85
2022/03/18 00:35:09;;;;;;;25.90;18.20;;;11.60;67.30;11.90;97760.00;;;;5094663;28;20381;-85
2022/03/18 00:37:37;;;;;;;21.53;17.67;;;11.60;67.30;11.80;97767.00;;;;5095651;28;20286;-85
2022/03/18 00:40:07;;;;;;;23.77;18.77;;;11.50;67.20;11.80;97766.00;;;;5095443;28;20243;-85
2022/03/18 00:42:34;;;;;;;22.53;18.63;;;11.50;67.30;11.80;97772.00;;;;5096759;28;20282;-85
2022/03/18 00:45:05;;;;;;;23.90;18.33;;;11.50;68.10;11.80;97774.00;;;;5096242;28;20757;-85
2022/03/18 00:53:04;;;;;;;23.97;18.67;;;11.40;67.30;11.60;97780.00;;;;5097398;28;20195;-85
2022/03/18 00:55:31;;;;;;;23.80;18.47;;;11.40;67.20;11.60;97781.00;;;;5095669;28;20307;-84
2022/03/18 00:57:58;;;;;;;23.93;18.70;;;11.30;67.20;11.60;97778.00;;;;5095013;28;20234;-85
2022/03/18 01:00:26;;;;;;;24.43;18.13;;;11.30;67.40;11.60;97773.00;;;;5094592;28;20242;-85
2022/03/18 01:02:54;;;;;;;26.10;19.30;;;11.40;67.60;11.60;97781.00;;;;5096864;28;20285;-84
2022/03/18 01:05:21;;;;;;;24.07;18.57;;;11.30;67.70;11.60;97772.00;;;;5096100;28;20652;-84
2022/03/18 01:07:48;;;;;;;24.77;18.57;;;11.30;67.70;11.60;97779.00;;;;5095141;28;20217;-85
2022/03/18 01:10:16;;;;;;;27.73;19.87;;;11.30;67.80;11.60;97779.00;;;;5095164;28;20286;-85
2022/03/18 01:12:43;;;;;;;24.23;19.03;;;11.30;67.80;11.60;97775.00;;;;5095610;28;20263;-85
2022/03/18 01:15:10;;;;;;;24.30;19.23;;;11.30;67.80;11.60;97773.00;;;;5093982;28;20261;-85
2022/03/18 01:17:38;;;;;;;24.30;18.90;;;11.30;67.90;11.60;97772.00;;;;5094582;28;20233;-84
2022/03/18 01:20:07;;;;;;;23.53;19.27;;;11.30;67.90;11.70;97772.00;;;;5094234;28;20281;-84
2022/03/18 01:22:34;;;;;;;25.70;19.50;;;11.40;67.90;11.70;97773.00;;;;5094721;28;20548;-85
2022/03/18 01:25:02;;;;;;;25.07;18.37;;;11.40;67.80;11.70;97777.00;;;;5093670;28;20318;-85
2022/03/18 01:27:29;;;;;;;25.00;18.87;;;11.40;67.80;11.70;97776.00;;;;5094497;28;20201;-85
2022/03/18 01:29:56;;;;;;;26.20;18.27;;;11.40;67.70;11.70;97775.00;;;;5094470;28;20289;-85
2022/03/18 01:32:23;;;;;;;23.90;17.77;;;11.50;67.70;11.80;97779.00;;;;5093960;28;20206;-85
2022/03/18 01:34:51;;;;;;;24.67;17.80;;;11.50;67.70;11.80;97775.00;;;;5094243;28;20254;-85
2022/03/18 01:37:19;;;;;;;25.77;20.00;;;11.50;67.60;11.80;97780.00;;;;5094742;28;20278;-85
2022/03/18 01:39:46;;;;;;;24.83;19.17;;;11.60;67.60;11.80;97783.00;;;;5095861;28;20195;-85
2022/03/18 01:42:13;;;;;;;26.53;19.30;;;11.50;67.50;11.90;97785.00;;;;5097234;28;20203;-85
2022/03/18 01:44:42;;;;;;;24.47;18.80;;;11.60;68.30;11.90;97788.00;;;;5097829;28;20249;-85
2022/03/18 01:47:09;;;;;;;22.00;18.23;;;11.60;67.50;11.90;97784.00;;;;5098155;28;20203;-84
2022/03/18 01:49:37;;;;;;;23.93;18.43;;;11.60;67.30;11.90;97783.00;;;;5097737;28;20264;-85
2022/03/18 01:52:09;;;;;;;23.97;18.50;;;11.60;67.40;11.90;97788.00;;;;5094435;28;20207;-85
2022/03/18 01:54:47;;;;;;;25.73;19.77;;;11.70;67.30;11.90;97786.00;;;;5093881;28;20229;-85
2022/03/18 01:57:18;;;;;;;25.07;19.37;;;11.70;67.30;11.90;97789.00;;;;5094006;28;20633;-85
2022/03/18 01:59:46;;;;;;;23.80;18.93;;;11.70;67.20;11.90;97779.00;;;;5097463;28;20191;-85
2022/03/18 02:02:18;;;;;;;24.33;18.90;;;11.60;67.10;11.90;97787.00;;;;5094982;28;20238;-85
2022/03/18 02:04:47;;;;;;;23.33;18.00;;;11.70;67.20;11.80;97788.00;;;;5091976;28;20250;-85
2022/03/18 02:07:17;;;;;;;24.27;18.47;;;11.60;67.10;11.80;97795.00;;;;5092981;28;20230;-84
2022/03/18 02:09:45;;;;;;;25.70;18.60;;;11.60;67.20;11.90;97791.00;;;;5093888;28;20199;-85
2022/03/18 02:12:13;;;;;;;25.53;19.10;;;11.60;67.10;11.80;97790.00;;;;5093137;28;20207;-85
2022/03/18 02:14:44;;;;;;;23.40;18.27;;;11.60;67.00;11.80;97795.00;;;;5093226;28;20709;-84
2022/03/18 02:17:13;;;;;;;23.50;18.30;;;11.60;67.10;11.80;97791.00;;;;5093609;28;20568;-85
2022/03/18 02:19:42;;;;;;;24.63;17.93;;;11.60;67.20;11.80;97792.00;;;;5093718;28;20195;-85
2022/03/18 02:22:13;;;;;;;23.87;19.50;;;11.60;67.10;11.80;97796.00;;;;5092948;28;20199;-85
2022/03/18 02:24:42;;;;;;;24.37;18.53;;;11.50;67.20;11.80;97798.00;;;;5093717;28;20250;-85
2022/03/18 02:27:11;;;;;;;22.67;19.13;;;11.60;67.40;11.80;97795.00;;;;5093111;28;20253;-84
2022/03/18 02:29:38;;;;;;;22.93;18.47;;;11.50;67.30;11.80;97797.00;;;;5094239;28;20227;-85
2022/03/18 02:32:07;;;;;;;23.57;19.57;;;11.50;67.30;11.80;97791.00;;;;5092908;28;20701;-84
2022/03/18 02:34:36;;;;;;;23.80;18.33;;;11.50;67.40;11.80;97796.00;;;;5093538;28;20212;-84
2022/03/18 02:37:04;;;;;;;25.23;19.47;;;11.50;67.50;11.80;97798.00;;;;5092604;28;20295;-85
2022/03/18 02:39:31;;;;;;;23.10;18.37;;;11.50;67.40;11.80;97798.00;;;;5093037;28;20221;-84
2022/03/18 02:42:00;;;;;;;22.87;17.67;;;11.50;67.50;11.80;97796.00;;;;5093212;28;20231;-84
2022/03/18 02:44:28;;;;;;;23.87;18.57;;;11.50;67.60;11.80;97793.00;;;;5092417;28;20649;-84
2022/03/18 02:46:56;;;;;;;22.90;17.97;;;11.50;67.60;11.80;97794.00;;;;5093005;28;20238;-85
2022/03/18 02:49:25;;;;;;;22.47;17.27;;;11.50;67.70;11.80;97805.00;;;;5093455;28;20656;-85
2022/03/18 02:51:53;;;;;;;22.23;17.87;;;11.50;68.40;11.80;97799.00;;;;5092758;28;20202;-85
2022/03/18 02:54:20;;;;;;;22.13;18.27;;;11.50;67.60;11.80;97801.00;;;;5094032;28;20223;-85
2022/03/18 02:56:47;;;;;;;22.10;18.40;;;11.50;67.70;11.70;97795.00;;;;5095668;28;20200;-85
2022/03/18 02:59:16;;;;;;;21.77;18.27;;;11.50;67.70;11.80;97808.00;;;;5097509;28;20199;-84
2022/03/18 03:01:43;;;;;;;23.50;18.47;;;11.50;67.70;11.70;97801.00;;;;5096417;28;20204;-84
2022/03/18 03:04:11;;;;;;;23.00;18.00;;;11.50;67.80;11.70;97803.00;;;;5096582;28;20302;-84
2022/03/18 03:09:23;;;;;;;23.90;18.17;;;11.40;67.80;11.70;97808.00;;;;5096495;28;20654;-85
2022/03/18 03:11:50;;;;;;;25.53;19.07;;;11.30;67.80;11.70;97807.00;;;;5098186;28;20218;-84
2022/03/18 03:14:18;;;;;;;24.30;19.13;;;11.40;68.00;11.70;97811.00;;;;5096952;28;20215;-85
2022/03/18 03:16:46;;;;;;;26.03;18.87;;;11.40;68.00;11.70;97806.00;;;;5096247;28;20630;-85
2022/03/18 03:19:13;;;;;;;23.13;18.03;;;11.40;68.00;11.60;97812.00;;;;5096302;28;20210;-84
2022/03/18 03:21:41;;;;;;;23.07;18.93;;;11.40;68.70;11.60;97814.00;;;;5095909;28;20245;-85
2022/03/18 03:24:09;;;;;;;24.63;18.93;;;11.30;67.80;11.60;97822.00;;;;5095623;28;20910;-85
2022/03/18 03:26:38;;;;;;;22.43;18.53;;;11.30;68.00;11.60;97825.00;;;;5095958;28;20198;-85
2022/03/18 03:29:05;;;;;;;22.03;17.70;;;11.30;67.90;11.50;97830.00;;;;5096734;28;20241;-85
2022/03/18 03:31:34;;;;;;;21.90;18.67;;;11.30;68.00;11.50;97831.00;;;;5097894;28;20203;-85
2022/03/18 03:34:02;;;;;;;23.37;18.17;;;11.20;68.00;11.40;97840.00;;;;5080113;28;20251;-85
2022/03/18 03:36:29;;;;;;;25.80;18.90;;;11.20;68.10;11.40;97841.00;;;;5081034;28;20219;-84
2022/03/18 03:38:56;;;;;;;25.03;19.50;;;11.20;68.20;11.40;97827.00;;;;5079998;28;20268;-84
2022/03/18 03:41:24;;;;;;;24.00;18.80;;;11.10;68.20;11.40;97836.00;;;;5079731;28;20207;-84
2022/03/18 03:43:51;;;;;;;25.57;18.73;;;11.10;68.20;11.40;97839.00;;;;5079940;28;20280;-84
2022/03/18 03:46:18;;;;;;;25.23;18.23;;;11.10;68.30;11.40;97844.00;;;;5078501;28;20246;-85
2022/03/18 03:48:47;;;;;;;23.97;18.87;;;11.00;68.40;11.30;97835.00;;;;5075259;28;20279;-85
2022/03/18 03:51:14;;;;;;;22.77;18.27;;;11.10;68.40;11.30;97851.00;;;;5074960;28;20232;-84
2022/03/18 03:53:41;;;;;;;22.90;17.97;;;11.10;68.80;11.30;97855.00;;;;5074982;28;20251;-85
2022/03/18 03:56:08;;;;;;;22.47;18.17;;;11.10;68.50;11.30;97855.00;;;;5075503;28;20196;-85
2022/03/18 03:58:35;;;;;;;22.40;17.43;;;11.10;68.60;11.30;97862.00;;;;5075059;28;20662;-84
2022/03/18 04:01:03;;;;;;;23.23;18.50;;;11.10;68.60;11.30;97861.00;;;;5075379;28;20193;-85
2022/03/18 04:03:31;;;;;;;24.60;18.73;;;11.10;68.70;11.30;97867.00;;;;5093677;28;20219;-85
2022/03/18 04:05:59;;;;;;;21.47;17.10;;;11.10;68.80;11.30;97861.00;;;;5094916;28;20247;-85
2022/03/18 04:08:26;;;;;;;23.37;17.90;;;11.10;68.70;11.40;97868.00;;;;5093873;28;20286;-85
2022/03/18 04:10:54;;;;;;;24.70;18.57;;;11.10;68.70;11.40;97871.00;;;;5095293;28;20264;-84
2022/03/18 04:13:21;;;;;;;24.23;18.40;;;11.10;68.60;11.40;97871.00;;;;5095221;28;20581;-84
2022/03/18 04:15:49;;;;;;;22.37;17.53;;;11.10;68.60;11.40;97885.00;;;;5095045;28;20200;-84
2022/03/18 04:18:16;;;;;;;23.60;18.40;;;11.10;68.60;11.40;97881.00;;;;5095276;28;20746;-84
2022/03/18 04:20:43;;;;;;;22.30;18.47;;;11.60;68.90;11.40;97878.00;;;;5094864;28;20238;-84
2022/03/18 04:23:12;;;;;;;24.60;18.87;;;11.20;68.60;11.50;97883.00;;;;5095205;28;20214;-85
2022/03/18 04:25:40;;;;;;;25.20;18.17;;;11.20;68.70;11.50;97884.00;;;;5095325;28;20215;-85
2022/03/18 04:28:07;;;;;;;22.63;17.60;;;11.20;69.30;11.50;97895.00;;;;5096248;28;20630;-84
2022/03/18 04:30:34;;;;;;;22.50;18.47;;;11.20;68.50;11.50;97897.00;;;;5095441;28;20191;-85
2022/03/18 04:33:01;;;;;;;21.07;16.93;;;11.20;68.40;11.50;97896.00;;;;5094360;28;20310;-84
2022/03/18 04:35:31;;;;;;;20.83;17.37;;;11.20;68.30;11.50;97894.00;;;;5094511;28;20309;-85
2022/03/18 04:37:59;;;;;;;21.33;17.47;;;11.30;68.20;11.50;97905.00;;;;5094455;28;20610;-84
2022/03/18 04:40:28;;;;;;;23.07;16.90;;;11.30;68.20;11.50;97904.00;;;;5094381;28;20252;-84
2022/03/18 04:42:56;;;;;;;22.77;17.77;;;11.30;68.20;11.50;97899.00;;;;5094989;28;20282;-85
2022/03/18 04:45:23;;;;;;;20.93;17.20;;;11.30;68.20;11.60;97905.00;;;;5093956;28;20666;-84
2022/03/18 04:47:50;;;;;;;24.00;19.20;;;11.30;68.20;11.60;97906.00;;;;5094293;28;20199;-85
2022/03/18 04:50:17;;;;;;;23.43;17.00;;;11.30;68.20;11.60;97912.00;;;;5094661;28;20192;-85
2022/03/18 04:52:44;;;;;;;20.97;16.60;;;11.30;68.20;11.60;97906.00;;;;5094711;28;20223;-84
2022/03/18 04:55:12;;;;;;;20.93;17.23;;;11.30;68.20;11.60;97922.00;;;;5093771;28;20222;-84
2022/03/18 04:57:41;;;;;;;21.83;17.70;;;11.30;68.10;11.60;97923.00;;;;5094660;28;20200;-84
2022/03/18 05:00:10;;;;;;;19.63;16.93;;;11.30;68.20;11.60;97919.00;;;;5097728;28;20286;-84
2022/03/18 05:02:37;;;;;;;22.20;17.80;;;11.30;68.20;11.70;97923.00;;;;5095947;28;20213;-85
2022/03/18 05:05:07;;;;;;;21.63;17.00;;;11.30;68.00;11.60;97922.00;;;;5094648;28;20223;-85
2022/03/18 05:07:35;;;;;;;22.93;17.17;;;11.30;67.90;11.60;97932.00;;;;5095019;28;20429;-85
2022/03/18 05:10:02;;;;;;;19.70;16.13;;;11.30;67.90;11.60;97927.00;;;;5094531;28;20619;-84
2022/03/18 05:12:31;;;;;;;20.90;17.67;;;11.30;67.90;11.60;97925.00;;;;5093703;28;20200;-84
2022/03/18 05:14:59;;;;;;;20.30;16.50;;;11.30;67.90;11.60;97929.00;;;;5093172;28;20213;-84
2022/03/18 05:17:26;;;;;;;21.40;16.87;;;11.30;67.80;11.60;97943.00;;;;5094053;28;20257;-85
2022/03/18 05:19:53;;;;;;;20.33;16.53;;;11.20;67.60;11.60;97931.00;;;;5095455;28;20707;-84
2022/03/18 05:22:21;;;;;;;22.83;17.50;;;11.40;67.80;11.60;97947.00;;;;5096025;28;20637;-85
2022/03/18 05:24:48;;;;;;;22.57;17.43;;;11.40;67.70;11.60;97949.00;;;;5093058;28;20257;-85
2022/03/18 05:27:15;;;;;;;20.40;16.50;;;11.30;67.60;11.70;97947.00;;;;5093902;28;20207;-85
2022/03/18 05:29:42;;;;;;;19.87;15.57;;;11.40;68.10;11.70;97947.00;;;;5093421;28;20237;-84
2022/03/18 05:32:10;;;;;;;20.37;16.50;;;11.40;67.60;11.60;97954.00;;;;5093701;28;20616;-85
2022/03/18 05:34:38;;;;;;;19.37;16.57;;;11.40;67.40;11.60;97953.00;;;;5093608;28;20211;-84
2022/03/18 05:37:06;;;;;;;20.57;17.10;;;11.40;67.30;11.60;97956.00;;;;5094785;28;20230;-85
2022/03/18 05:39:34;;;;;;;20.13;15.50;;;11.40;67.30;11.60;97964.00;;;;5094956;28;20249;-85
2022/03/18 05:42:01;;;;;;;18.57;15.27;;;11.40;67.30;11.60;97958.00;;;;5116090;22;20227;-87
2022/03/18 05:44:28;;;;;;;20.17;15.33;;;11.40;67.30;11.60;97975.00;;;;5091682;28;20218;-89
2022/03/18 05:46:56;;;;;;;19.50;15.93;;;11.40;67.10;11.60;97976.00;;;;5072368;28;20302;-89
2022/03/18 05:49:25;;;;;;;18.83;16.07;;;11.40;67.00;11.60;97975.00;;;;5072835;28;20203;-89
2022/03/18 05:51:52;;;;;;;19.60;16.00;;;12.90;67.80;11.60;97963.00;;;;5073310;28;20239;-89
2022/03/18 05:54:19;;;;;;;19.37;15.47;;;11.40;66.80;11.60;97972.00;;;;5072830;28;20204;-89
2022/03/18 05:56:55;;;;;;;18.73;15.10;;;11.40;66.70;11.60;97980.00;;;;5072382;28;20509;-89
2022/03/18 05:59:25;;;;;;;21.13;16.17;;;11.30;66.70;11.60;97981.00;;;;5072779;28;20180;-90
2022/03/18 06:01:53;;;;;;;20.17;15.80;;;11.40;66.80;11.60;97983.00;;;;5077053;28;20261;-89
2022/03/18 06:04:21;;;;;;;17.70;14.90;;;11.40;66.60;11.60;97972.00;;;;5092733;28;20198;-89
2022/03/18 06:06:52;;;;;;;19.77;15.57;;;11.40;66.50;11.60;97979.00;;;;5093251;28;20229;-89
2022/03/18 06:12:07;;;;;;;18.93;14.97;;;11.40;66.30;11.60;97988.00;;;;5088237;28;20273;-90
2022/03/18 06:14:34;;;;;;;20.97;16.37;;;11.40;66.20;11.60;97997.00;;;;5072224;28;20204;-89
2022/03/18 06:17:05;;;;;;;19.40;16.03;;;11.30;66.10;11.60;97999.00;;;;5072148;28;20210;-89
2022/03/18 06:19:33;;;;;;;20.10;16.60;;;11.40;66.10;11.60;97995.00;;;;5072227;28;20286;-89
2022/03/18 06:22:08;;;;;;;19.73;14.80;;;11.40;66.10;11.70;97987.00;;;;5072551;28;20302;-89
2022/03/18 06:24:44;;;;;;;19.80;16.03;;;11.30;66.10;11.70;97986.00;;;;5072211;28;20200;-89
2022/03/18 06:27:12;;;;;;;21.70;16.50;;;11.40;65.90;11.70;97994.00;;;;5072118;28;20247;-89
2022/03/18 06:29:45;;;;;;;20.57;16.47;;;12.30;66.60;11.70;97996.00;;;;5072532;28;20468;-89
2022/03/18 06:32:14;;;;;;;21.73;16.30;;;11.40;66.00;11.70;98010.00;;;;5082413;28;20231;-89
2022/03/18 06:34:42;;;;;;;21.73;16.50;;;11.40;65.90;11.80;98026.00;;;;5097069;28;20199;-89
2022/03/18 06:37:10;;;;;;;22.97;16.57;;;11.50;65.80;11.80;98016.00;;;;5096856;28;20191;-89
2022/03/18 06:39:37;;;;;;;20.77;16.17;;;11.40;65.70;11.90;98033.00;;;;5096485;28;20191;-90
2022/03/18 06:42:05;;;;;;;21.60;16.53;;;11.30;65.60;11.90;98022.00;;;;5096305;28;20231;-90
2022/03/18 06:44:33;;;;;;;22.30;16.93;;;11.50;65.60;11.90;98039.00;;;;5096359;28;20214;-89
2022/03/18 06:47:00;;;;;;;21.63;16.80;;;11.60;65.70;12.00;98047.00;;;;5096707;28;20314;-89
2022/03/18 06:49:27;;;;;;;20.07;15.93;;;11.60;65.40;12.00;98052.00;;;;5096298;28;20681;-89
2022/03/18 06:51:54;;;;;;;20.70;17.10;;;11.60;65.20;12.00;98052.00;;;;5096766;28;20215;-90
2022/03/18 06:54:23;;;;;;;21.17;16.80;;;11.70;65.30;12.00;98052.00;;;;5096760;28;20646;-89
2022/03/18 06:56:50;;;;;;;20.50;16.20;;;11.70;65.40;12.10;98054.00;;;;5096776;28;20223;-90
2022/03/18 06:59:17;;;;;;;22.30;16.83;;;11.70;65.40;12.20;98060.00;;;;5096463;28;20669;-90
2022/03/18 07:01:44;;;;;;;22.63;17.60;;;11.80;65.30;12.20;98050.00;;;;5095578;28;20661;-89
2022/03/18 07:04:11;;;;;;;25.47;19.27;;;11.80;65.20;12.20;98038.00;;;;5096253;28;20673;-89
2022/03/18 07:06:38;;;;;;;19.53;16.23;;;11.80;65.10;12.30;98049.00;;;;5095591;28;20230;-90
2022/03/18 07:09:06;;;;;;;23.07;18.07;;;12.30;65.30;12.30;98056.00;;;;5096170;28;20199;-90
2022/03/18 07:11:34;;;;;;;23.07;17.60;;;11.90;65.10;12.40;98067.00;;;;5095778;28;20298;-90
2022/03/18 07:14:01;;;;;;;21.87;17.77;;;12.00;65.00;12.50;98068.00;;;;5097459;28;20195;-90
2022/03/18 07:19:16;;;;;;;22.60;17.77;;;12.60;65.20;12.60;98071.00;;;;5098674;28;20272;-89
2022/03/18 07:21:44;;;;;;;23.37;18.30;;;12.20;64.60;12.70;98066.00;;;;5096808;28;20211;-89
2022/03/18 07:24:11;;;;;;;21.07;16.83;;;12.80;65.00;12.70;98069.00;;;;5096613;28;20195;-89
2022/03/18 07:26:40;;;;;;;23.80;18.40;;;12.30;64.60;12.80;98090.00;;;;5095940;28;20226;-90
2022/03/18 07:29:07;;;;;;;23.43;18.10;;;12.30;64.50;12.90;98085.00;;;;5096243;28;20203;-90
2022/03/18 07:31:34;;;;;;;21.97;16.97;;;12.40;64.30;12.90;98084.00;;;;5100977;28;20223;-90
2022/03/18 07:34:01;;;;;;;26.67;18.67;;;12.60;65.10;13.00;98081.00;;;;5096602;28;20282;-90
2022/03/18 07:36:29;;;;;;;24.10;17.93;;;12.40;64.00;13.10;98084.00;;;;5096150;28;20256;-89
2022/03/18 07:38:56;;;;;;;23.33;17.93;;;12.60;63.70;13.00;98094.00;;;;5096352;28;20195;-90
2022/03/18 07:41:23;;;;;;;23.13;17.93;;;12.60;63.20;13.10;98094.00;;;;5097063;28;20328;-89
2022/03/18 07:43:52;;;;;;;22.30;17.33;;;12.60;63.30;13.20;98106.00;;;;5099646;28;20230;-90
2022/03/18 07:46:19;;;;;;;20.07;16.57;;;14.00;64.10;13.20;98099.00;;;;5097466;28;20696;-90
2022/03/18 07:48:46;;;;;;;23.77;17.87;;;12.70;63.20;13.30;98110.00;;;;5097240;28;20552;-90
2022/03/18 07:51:14;;;;;;;21.33;16.77;;;12.80;63.30;13.30;98110.00;;;;5095316;28;20258;-90
2022/03/18 07:53:41;;;;;;;19.43;15.93;;;12.80;62.90;13.40;98108.00;;;;5095320;28;20198;-90
2022/03/18 07:56:08;;;;;;;21.10;16.07;;;12.90;62.70;13.50;98116.00;;;;5095426;28;20290;-90
2022/03/18 07:58:35;;;;;;;20.50;16.97;;;13.00;62.60;13.50;98115.00;;;;5095125;28;20278;-90
2022/03/18 08:01:06;;;;;;;19.60;16.20;;;13.10;62.30;13.60;98125.00;;;;5094988;28;20607;-90
2022/03/18 08:03:33;;;;;;;21.77;17.60;;;13.10;61.70;13.60;98122.00;;;;5095322;28;20586;-90
2022/03/18 08:06:00;;;;;;;18.97;15.73;;;13.10;61.90;13.60;98130.00;;;;5094839;28;20268;-89
2022/03/18 08:08:27;;;;;;;20.40;16.20;;;13.10;61.70;13.70;98123.00;;;;5094711;28;20226;-90
2022/03/18 08:10:55;;;;;;;22.70;16.53;;;13.20;61.70;13.70;98136.00;;;;5094597;28;20217;-90
2022/03/18 08:13:24;;;;;;;20.33;15.17;;;13.30;61.70;13.80;98128.00;;;;5094870;28;20195;-90
2022/03/18 08:16:23;;;;;;;18.40;15.20;;;13.30;61.40;13.90;98128.00;;;;5094645;28;20199;-89
2022/03/18 08:18:51;;;;;;;17.93;14.60;;;13.40;61.00;14.00;98139.00;;;;5032441;28;20184;-89
2022/03/18 08:21:18;;;;;;;20.47;15.43;;;13.40;60.80;14.00;98136.00;;;;5080656;28;20218;-90
2022/03/18 08:23:46;;;;;;;16.67;14.27;;;13.50;60.40;14.00;98144.00;;;;5094506;28;20200;-90
2022/03/18 08:26:13;;;;;;;20.73;15.53;;;13.50;60.70;14.10;98153.00;;;;5094132;28;20276;-90
2022/03/18 08:28:41;;;;;;;18.60;15.33;;;13.60;60.60;14.20;98152.00;;;;5094158;28;20283;-90
2022/03/18 08:31:08;;;;;;;19.47;14.03;;;13.70;60.40;14.30;98156.00;;;;5094671;28;20596;-89
2022/03/18 08:33:37;;;;;;;17.47;13.70;;;13.70;60.30;14.40;98160.00;;;;5094250;28;20237;-90
2022/03/18 08:36:05;;;;;;;16.80;13.67;;;13.80;59.60;14.40;98154.00;;;;5093946;28;20234;-89
2022/03/18 08:38:32;;;;;;;17.83;14.27;;;13.90;59.60;14.40;98165.00;;;;5094148;28;20218;-90
2022/03/18 08:40:59;;;;;;;17.83;14.87;;;13.90;59.60;14.50;98150.00;;;;5093991;28;20280;-90
2022/03/18 08:43:33;;;;;;;16.17;14.07;;;14.00;59.40;14.60;98150.00;;;;5094133;28;20287;-90
2022/03/18 08:46:00;;;;;;;18.67;15.03;;;14.10;59.50;14.80;98163.00;;;;5093766;28;20209;-89
2022/03/18 08:48:28;;;;;;;17.70;14.60;;;14.20;59.50;14.90;98171.00;;;;5094066;28;20222;-90
2022/03/18 08:50:57;;;;;;;17.00;14.27;;;14.30;59.50;15.10;98171.00;;;;5093726;28;20215;-91
2022/03/18 08:53:24;;;;;;;17.60;14.40;;;15.20;60.00;15.30;98180.00;;;;5074917;28;20220;-90
2022/03/18 08:55:51;;;;;;;16.90;14.03;;;14.50;59.80;15.50;98182.00;;;;5073182;28;20203;-90
2022/03/18 08:58:22;;;;;;;17.93;15.07;;;14.80;59.80;15.60;98175.00;;;;5073492;28;20189;-89
2022/03/18 09:00:49;;;;;;;19.77;15.57;;;15.60;59.90;15.80;98188.00;;;;5073295;28;20706;-90
2022/03/18 09:03:18;;;;;;;19.60;15.20;;;15.00;59.50;16.00;98190.00;;;;5073288;28;20215;-90
2022/03/18 09:05:45;;;;;;;17.07;14.83;;;15.20;59.50;16.20;98177.00;;;;5073141;28;20238;-90
2022/03/18 09:08:14;;;;;;;17.83;14.47;;;15.40;59.50;16.40;98194.00;;;;5073331;28;20298;-89
2022/03/18 09:10:41;;;;;;;18.23;15.27;;;15.60;59.00;16.60;98205.00;;;;5072949;28;20219;-90
2022/03/18 09:13:09;;;;;;;20.10;16.03;;;15.80;58.60;16.70;98210.00;;;;5073270;28;20195;-90
2022/03/18 09:15:36;;;;;;;18.13;14.20;;;16.10;57.80;16.90;98211.00;;;;5072903;28;20200;-90
2022/03/18 09:18:03;;;;;;;17.43;14.30;;;16.20;57.90;17.00;98211.00;;;;5073017;28;20210;-89
2022/03/18 09:20:30;;;;;;;18.63;14.97;;;16.50;57.90;17.30;98220.00;;;;5072716;28;20634;-90
2022/03/18 09:22:57;;;;;;;16.90;13.97;;;16.70;57.80;17.50;98212.00;;;;5072888;28;20208;-89
2022/03/18 09:25:26;;;;;;;18.83;14.43;;;17.00;57.60;17.70;98224.00;;;;5072772;28;20206;-90
2022/03/18 09:27:53;;;;;;;15.47;13.17;;;17.30;57.10;17.90;98228.00;;;;5072986;28;20234;-90
2022/03/18 09:30:20;;;;;;;15.77;13.13;;;17.70;57.10;18.10;98226.00;;;;5072777;28;20203;-90
2022/03/18 09:32:47;;;;;;;14.40;12.70;;;17.80;56.60;18.20;98226.00;;;;5085198;28;20199;-90
2022/03/18 09:35:16;;;;;;;15.43;13.30;;;18.00;56.30;18.40;98222.00;;;;5093011;28;20230;-90
2022/03/18 09:37:43;;;;;;;18.50;15.60;;;18.20;55.60;18.40;98224.00;;;;5093081;28;20205;-90
2022/03/18 09:40:12;;;;;;;17.23;14.30;;;18.30;53.10;18.40;98219.00;;;;5092970;28;20580;-90
2022/03/18 09:45:44;;;;;;;16.47;13.73;;;18.30;53.50;18.50;98238.00;;;;5110696;27;20618;-84
2022/03/18 09:48:12;;;;;;;15.83;13.13;;;18.50;52.60;18.60;98238.00;;;;5093551;28;20203;-85
2022/03/18 09:50:42;;;;;;;17.27;14.73;;;18.50;53.20;18.60;98235.00;;;;5093607;28;20273;-85
2022/03/18 09:53:12;;;;;;;16.40;14.20;;;18.50;52.10;18.70;98238.00;;;;5091768;28;20231;-84
2022/03/18 09:55:41;;;;;;;18.80;14.13;;;18.50;52.00;18.80;98241.00;;;;5092177;28;20199;-86
2022/03/18 09:58:09;;;;;;;16.77;13.60;;;18.50;52.10;18.90;98244.00;;;;5092040;28;20716;-85
2022/03/18 10:00:37;;;;;;;16.03;13.20;;;18.60;52.30;18.90;98247.00;;;;5090915;28;20203;-86
2022/03/18 10:03:12;;;;;;;15.70;13.33;;;18.60;52.00;19.00;98244.00;;;;5091842;28;20196;-86
2022/03/18 10:05:52;;;;;;;15.37;12.60;;;18.70;52.10;19.10;98252.00;;;;5092084;28;20207;-86
2022/03/18 10:08:21;;;;;;;16.43;13.97;;;18.80;52.00;19.10;98260.00;;;;5092487;28;20230;-85
2022/03/18 10:10:51;;;;;;;15.60;13.03;;;18.80;52.00;19.20;98260.00;;;;5090830;28;20286;-86
2022/03/18 10:13:20;;;;;;;15.80;12.97;;;18.90;51.90;19.30;98267.00;;;;5094047;28;20199;-84
2022/03/18 10:15:49;;;;;;;15.10;12.07;;;19.00;51.50;19.40;98265.00;;;;5093949;28;20226;-84
2022/03/18 10:18:17;;;;;;;13.50;12.10;;;19.10;50.80;19.40;98265.00;;;;5095326;28;20268;-84
2022/03/18 10:20:50;;;;;;;15.03;11.50;;;19.20;50.60;19.40;98265.00;;;;5093599;28;20207;-85
2022/03/18 10:23:25;;;;;;;12.93;11.37;;;19.30;50.20;19.50;98265.00;;;;5097785;28;20694;-85
2022/03/18 10:25:58;;;;;;;14.77;12.33;;;19.40;50.20;19.50;98262.00;;;;5089085;28;20195;-85
2022/03/18 10:28:41;;;;;;;18.27;13.37;;;19.50;49.70;19.50;98259.00;;;;5089171;28;20211;-85
2022/03/18 10:31:25;;;;;;;15.43;12.73;;;19.60;48.60;19.50;98258.00;;;;5092719;28;20225;-86
2022/03/18 10:39:35;;;;;;;14.80;12.70;;;19.80;46.90;19.30;98256.00;;;;5071258;28;20692;-87
2022/03/18 10:42:09;;;;;;;15.80;13.63;;;19.80;46.90;19.30;98257.00;;;;5071328;28;20200;-86
2022/03/18 10:44:46;;;;;;;13.67;12.27;;;19.80;46.30;19.20;98255.00;;;;5070943;28;20220;-86
2022/03/18 10:47:37;;;;;;;15.10;12.97;;;19.80;46.50;19.20;98258.00;;;;5070666;28;20235;-86
2022/03/18 10:50:29;;;;;;;12.23;10.63;;;19.70;46.30;19.20;98265.00;;;;5070728;28;20234;-86
2022/03/18 10:53:10;;;;;;;15.80;12.37;;;19.70;46.60;19.20;98266.00;;;;5071351;28;20287;-86
2022/03/18 10:55:40;;;;;;;15.57;12.20;;;19.70;46.80;19.20;98266.00;;;;5065465;28;20540;-86
2022/03/18 10:58:15;;;;;;;14.60;12.70;;;19.70;47.00;19.20;98275.00;;;;5058834;28;20197;-86
2022/03/18 11:00:44;;;;;;;16.77;13.57;;;19.70;47.00;19.30;98274.00;;;;5058841;28;20180;-86
2022/03/18 11:03:14;;;;;;;15.60;13.10;;;19.60;45.20;19.20;98264.00;;;;5074012;28;20827;-86
2022/03/18 11:05:45;;;;;;;14.67;12.10;;;19.50;45.60;19.20;98275.00;;;;5078691;28;20219;-86
2022/03/18 11:08:14;;;;;;;15.90;13.27;;;19.40;46.10;19.10;98273.00;;;;5079252;28;20246;-87